sensor_id;sensor_type;location;lat;lon;timestamp;P1;durP1;ratioP1;P2;durP2;ratioP2
46288;SDS011;63105;46.158;14.604;2023-03-23T00:00:40;16.63;;;10.02;;
46288;SDS011;63105;46.158;14.604;2023-03-23T00:03:06;16.92;;;9.73;;
46288;SDS011;63105;46.158;14.604;2023-03-23T00:05:31;14.88;;;9.20;;
46288;SDS011;63105;46.158;14.604;2023-03-23T00:07:56;16.92;;;10.02;;
46288;SDS011;63105;46.158;14.604;2023-03-23T00:10:22;17.30;;;10.35;;
46288;SDS011;63105;46.158;14.604;2023-03-23T00:12:49;17.13;;;9.77;;
46288;SDS011;63105;46.158;14.604;2023-03-23T00:15:14;15.20;;;9.60;;
46288;SDS011;63105;46.158;14.604;2023-03-23T00:17:42;16.77;;;10.05;;
46288;SDS011;63105;46.158;14.604;2023-03-23T00:20:08;19.00;;;10.20;;
46288;SDS011;63105;46.158;14.604;2023-03-23T00:22:36;15.77;;;9.65;;
46288;SDS011;63105;46.158;14.604;2023-03-23T00:25:06;16.63;;;10.60;;
46288;SDS011;63105;46.158;14.604;2023-03-23T00:27:33;15.30;;;10.23;;
46288;SDS011;63105;46.158;14.604;2023-03-23T00:29:59;15.25;;;9.50;;
46288;SDS011;63105;46.158;14.604;2023-03-23T00:32:25;14.32;;;9.73;;
46288;SDS011;63105;46.158;14.604;2023-03-23T00:34:52;14.68;;;9.85;;
46288;SDS011;63105;46.158;14.604;2023-03-23T00:37:17;15.38;;;9.93;;
46288;SDS011;63105;46.158;14.604;2023-03-23T00:39:43;15.98;;;10.27;;
46288;SDS011;63105;46.158;14.604;2023-03-23T00:42:11;16.88;;;9.85;;
46288;SDS011;63105;46.158;14.604;2023-03-23T00:44:37;15.70;;;9.68;;
46288;SDS011;63105;46.158;14.604;2023-03-23T00:47:02;15.38;;;9.95;;
46288;SDS011;63105;46.158;14.604;2023-03-23T00:49:28;13.85;;;9.23;;
46288;SDS011;63105;46.158;14.604;2023-03-23T00:51:54;16.08;;;9.43;;
46288;SDS011;63105;46.158;14.604;2023-03-23T00:54:19;15.02;;;9.98;;
46288;SDS011;63105;46.158;14.604;2023-03-23T00:56:45;15.13;;;9.63;;
46288;SDS011;63105;46.158;14.604;2023-03-23T00:59:11;15.90;;;9.65;;
46288;SDS011;63105;46.158;14.604;2023-03-23T01:01:36;13.88;;;9.48;;
46288;SDS011;63105;46.158;14.604;2023-03-23T01:04:02;16.73;;;10.13;;
46288;SDS011;63105;46.158;14.604;2023-03-23T01:06:29;16.73;;;9.57;;
46288;SDS011;63105;46.158;14.604;2023-03-23T01:08:55;13.98;;;9.35;;
46288;SDS011;63105;46.158;14.604;2023-03-23T01:11:21;14.25;;;9.20;;
46288;SDS011;63105;46.158;14.604;2023-03-23T01:13:47;12.77;;;8.55;;
46288;SDS011;63105;46.158;14.604;2023-03-23T01:16:12;18.20;;;9.75;;
46288;SDS011;63105;46.158;14.604;2023-03-23T01:18:38;15.35;;;9.77;;
46288;SDS011;63105;46.158;14.604;2023-03-23T01:21:08;16.20;;;9.43;;
46288;SDS011;63105;46.158;14.604;2023-03-23T01:23:33;15.60;;;9.45;;
46288;SDS011;63105;46.158;14.604;2023-03-23T01:26:06;15.45;;;9.40;;
46288;SDS011;63105;46.158;14.604;2023-03-23T01:28:32;14.75;;;9.43;;
46288;SDS011;63105;46.158;14.604;2023-03-23T01:31:05;13.43;;;8.60;;
46288;SDS011;63105;46.158;14.604;2023-03-23T01:33:31;13.35;;;8.65;;
46288;SDS011;63105;46.158;14.604;2023-03-23T01:35:57;13.20;;;8.90;;
46288;SDS011;63105;46.158;14.604;2023-03-23T01:38:22;13.23;;;8.40;;
46288;SDS011;63105;46.158;14.604;2023-03-23T01:40:48;13.07;;;8.45;;
46288;SDS011;63105;46.158;14.604;2023-03-23T01:43:13;13.77;;;8.85;;
46288;SDS011;63105;46.158;14.604;2023-03-23T01:45:39;12.77;;;8.48;;
46288;SDS011;63105;46.158;14.604;2023-03-23T01:50:32;13.65;;;8.10;;
46288;SDS011;63105;46.158;14.604;2023-03-23T01:53:00;12.00;;;8.13;;
46288;SDS011;63105;46.158;14.604;2023-03-23T01:55:26;14.02;;;8.30;;
46288;SDS011;63105;46.158;14.604;2023-03-23T01:57:53;14.13;;;8.57;;
46288;SDS011;63105;46.158;14.604;2023-03-23T02:00:18;15.52;;;8.07;;
46288;SDS011;63105;46.158;14.604;2023-03-23T02:02:45;13.68;;;8.10;;
46288;SDS011;63105;46.158;14.604;2023-03-23T02:05:34;12.98;;;8.23;;
46288;SDS011;63105;46.158;14.604;2023-03-23T02:08:00;15.80;;;8.43;;
46288;SDS011;63105;46.158;14.604;2023-03-23T02:10:28;14.75;;;8.32;;
46288;SDS011;63105;46.158;14.604;2023-03-23T02:12:53;12.52;;;8.35;;
46288;SDS011;63105;46.158;14.604;2023-03-23T02:15:19;12.60;;;8.07;;
46288;SDS011;63105;46.158;14.604;2023-03-23T02:20:44;14.35;;;8.05;;
46288;SDS011;63105;46.158;14.604;2023-03-23T02:28:52;14.48;;;8.15;;
46288;SDS011;63105;46.158;14.604;2023-03-23T02:31:33;13.60;;;8.23;;
46288;SDS011;63105;46.158;14.604;2023-03-23T02:36:30;13.60;;;7.90;;
46288;SDS011;63105;46.158;14.604;2023-03-23T02:41:35;13.15;;;7.90;;
46288;SDS011;63105;46.158;14.604;2023-03-23T02:44:01;11.88;;;8.10;;
46288;SDS011;63105;46.158;14.604;2023-03-23T02:46:27;13.23;;;8.52;;
46288;SDS011;63105;46.158;14.604;2023-03-23T02:48:53;14.20;;;8.57;;
46288;SDS011;63105;46.158;14.604;2023-03-23T02:51:21;11.10;;;7.80;;
46288;SDS011;63105;46.158;14.604;2023-03-23T02:53:47;13.20;;;8.40;;
46288;SDS011;63105;46.158;14.604;2023-03-23T02:56:15;11.80;;;8.10;;
46288;SDS011;63105;46.158;14.604;2023-03-23T02:58:41;13.98;;;8.07;;
46288;SDS011;63105;46.158;14.604;2023-03-23T03:03:40;12.32;;;7.90;;
46288;SDS011;63105;46.158;14.604;2023-03-23T03:06:09;12.23;;;8.15;;
46288;SDS011;63105;46.158;14.604;2023-03-23T03:11:14;12.32;;;8.27;;
46288;SDS011;63105;46.158;14.604;2023-03-23T03:18:53;11.13;;;8.00;;
46288;SDS011;63105;46.158;14.604;2023-03-23T03:21:17;11.65;;;7.80;;
46288;SDS011;63105;46.158;14.604;2023-03-23T03:23:45;12.32;;;8.10;;
46288;SDS011;63105;46.158;14.604;2023-03-23T03:26:14;15.05;;;9.05;;
46288;SDS011;63105;46.158;14.604;2023-03-23T03:28:43;14.07;;;8.43;;
46288;SDS011;63105;46.158;14.604;2023-03-23T03:31:09;14.68;;;8.45;;
46288;SDS011;63105;46.158;14.604;2023-03-23T03:33:34;13.50;;;9.02;;
46288;SDS011;63105;46.158;14.604;2023-03-23T03:36:01;13.88;;;8.52;;
46288;SDS011;63105;46.158;14.604;2023-03-23T03:38:27;12.88;;;8.70;;
46288;SDS011;63105;46.158;14.604;2023-03-23T03:40:55;14.10;;;8.82;;
46288;SDS011;63105;46.158;14.604;2023-03-23T03:43:20;14.10;;;9.20;;
46288;SDS011;63105;46.158;14.604;2023-03-23T03:45:45;15.32;;;8.95;;
46288;SDS011;63105;46.158;14.604;2023-03-23T03:48:11;16.73;;;9.20;;
46288;SDS011;63105;46.158;14.604;2023-03-23T03:50:36;14.75;;;8.60;;
46288;SDS011;63105;46.158;14.604;2023-03-23T03:53:02;13.63;;;8.95;;
46288;SDS011;63105;46.158;14.604;2023-03-23T03:55:28;12.65;;;8.75;;
46288;SDS011;63105;46.158;14.604;2023-03-23T03:57:53;14.68;;;8.77;;
46288;SDS011;63105;46.158;14.604;2023-03-23T04:00:20;13.52;;;8.38;;
46288;SDS011;63105;46.158;14.604;2023-03-23T04:02:46;12.55;;;8.35;;
46288;SDS011;63105;46.158;14.604;2023-03-23T04:05:22;13.73;;;9.57;;
46288;SDS011;63105;46.158;14.604;2023-03-23T04:07:49;15.25;;;9.63;;
46288;SDS011;63105;46.158;14.604;2023-03-23T04:10:16;12.18;;;8.57;;
46288;SDS011;63105;46.158;14.604;2023-03-23T04:12:44;13.25;;;9.15;;
46288;SDS011;63105;46.158;14.604;2023-03-23T04:15:10;12.07;;;8.30;;
46288;SDS011;63105;46.158;14.604;2023-03-23T04:17:35;11.75;;;8.27;;
46288;SDS011;63105;46.158;14.604;2023-03-23T04:20:01;11.95;;;8.07;;
46288;SDS011;63105;46.158;14.604;2023-03-23T04:22:32;11.77;;;7.70;;
46288;SDS011;63105;46.158;14.604;2023-03-23T04:24:58;15.73;;;8.60;;
46288;SDS011;63105;46.158;14.604;2023-03-23T04:27:24;12.25;;;8.73;;
46288;SDS011;63105;46.158;14.604;2023-03-23T04:29:49;13.20;;;8.88;;
46288;SDS011;63105;46.158;14.604;2023-03-23T04:32:15;12.23;;;8.38;;
46288;SDS011;63105;46.158;14.604;2023-03-23T04:34:42;14.60;;;8.80;;
46288;SDS011;63105;46.158;14.604;2023-03-23T04:37:07;12.15;;;8.63;;
46288;SDS011;63105;46.158;14.604;2023-03-23T04:39:33;13.40;;;8.65;;
46288;SDS011;63105;46.158;14.604;2023-03-23T04:41:58;11.60;;;8.30;;
46288;SDS011;63105;46.158;14.604;2023-03-23T04:44:26;13.32;;;8.95;;
46288;SDS011;63105;46.158;14.604;2023-03-23T04:46:52;11.88;;;8.57;;
46288;SDS011;63105;46.158;14.604;2023-03-23T04:49:19;12.57;;;8.25;;
46288;SDS011;63105;46.158;14.604;2023-03-23T04:51:46;12.07;;;8.32;;
46288;SDS011;63105;46.158;14.604;2023-03-23T04:54:11;11.57;;;8.15;;
46288;SDS011;63105;46.158;14.604;2023-03-23T04:56:37;13.45;;;8.73;;
46288;SDS011;63105;46.158;14.604;2023-03-23T04:59:03;12.30;;;8.40;;
46288;SDS011;63105;46.158;14.604;2023-03-23T05:01:28;13.60;;;8.50;;
46288;SDS011;63105;46.158;14.604;2023-03-23T05:03:53;12.45;;;8.80;;
46288;SDS011;63105;46.158;14.604;2023-03-23T05:06:19;13.23;;;8.52;;
46288;SDS011;63105;46.158;14.604;2023-03-23T05:08:44;13.38;;;8.70;;
46288;SDS011;63105;46.158;14.604;2023-03-23T05:11:10;14.18;;;8.95;;
46288;SDS011;63105;46.158;14.604;2023-03-23T05:13:35;14.88;;;9.80;;
46288;SDS011;63105;46.158;14.604;2023-03-23T05:16:04;14.57;;;9.43;;
46288;SDS011;63105;46.158;14.604;2023-03-23T05:18:29;12.80;;;9.05;;
46288;SDS011;63105;46.158;14.604;2023-03-23T05:20:55;14.32;;;9.77;;
46288;SDS011;63105;46.158;14.604;2023-03-23T05:23:20;14.70;;;9.98;;
46288;SDS011;63105;46.158;14.604;2023-03-23T05:25:52;13.63;;;9.48;;
46288;SDS011;63105;46.158;14.604;2023-03-23T05:28:18;14.55;;;10.23;;
46288;SDS011;63105;46.158;14.604;2023-03-23T05:30:43;16.42;;;10.10;;
46288;SDS011;63105;46.158;14.604;2023-03-23T05:33:09;15.75;;;9.93;;
46288;SDS011;63105;46.158;14.604;2023-03-23T05:35:34;15.68;;;10.20;;
46288;SDS011;63105;46.158;14.604;2023-03-23T05:38:00;16.25;;;10.70;;
46288;SDS011;63105;46.158;14.604;2023-03-23T05:40:26;16.30;;;11.35;;
46288;SDS011;63105;46.158;14.604;2023-03-23T05:42:53;14.65;;;10.10;;
46288;SDS011;63105;46.158;14.604;2023-03-23T05:45:20;15.55;;;10.27;;
46288;SDS011;63105;46.158;14.604;2023-03-23T05:47:46;16.58;;;11.00;;
46288;SDS011;63105;46.158;14.604;2023-03-23T05:50:12;17.52;;;11.00;;
46288;SDS011;63105;46.158;14.604;2023-03-23T05:52:37;16.60;;;10.70;;
46288;SDS011;63105;46.158;14.604;2023-03-23T05:55:03;16.10;;;10.60;;
46288;SDS011;63105;46.158;14.604;2023-03-23T05:57:29;15.93;;;10.75;;
46288;SDS011;63105;46.158;14.604;2023-03-23T05:59:54;15.20;;;9.90;;
46288;SDS011;63105;46.158;14.604;2023-03-23T06:02:20;15.02;;;10.35;;
46288;SDS011;63105;46.158;14.604;2023-03-23T06:04:46;15.90;;;9.98;;
46288;SDS011;63105;46.158;14.604;2023-03-23T06:07:14;13.55;;;9.63;;
46288;SDS011;63105;46.158;14.604;2023-03-23T06:09:39;13.75;;;9.73;;
46288;SDS011;63105;46.158;14.604;2023-03-23T06:12:05;15.02;;;10.20;;
46288;SDS011;63105;46.158;14.604;2023-03-23T06:14:31;15.02;;;10.00;;
46288;SDS011;63105;46.158;14.604;2023-03-23T06:16:56;15.70;;;10.00;;
46288;SDS011;63105;46.158;14.604;2023-03-23T06:19:21;13.45;;;9.40;;
46288;SDS011;63105;46.158;14.604;2023-03-23T06:21:47;16.02;;;10.23;;
46288;SDS011;63105;46.158;14.604;2023-03-23T06:24:13;15.00;;;9.98;;
46288;SDS011;63105;46.158;14.604;2023-03-23T06:26:39;16.38;;;10.18;;
46288;SDS011;63105;46.158;14.604;2023-03-23T06:29:06;13.32;;;9.80;;
46288;SDS011;63105;46.158;14.604;2023-03-23T06:31:36;13.90;;;8.88;;
46288;SDS011;63105;46.158;14.604;2023-03-23T06:34:02;13.27;;;9.13;;
46288;SDS011;63105;46.158;14.604;2023-03-23T06:36:27;12.23;;;8.90;;
46288;SDS011;63105;46.158;14.604;2023-03-23T06:38:53;13.82;;;9.45;;
46288;SDS011;63105;46.158;14.604;2023-03-23T06:41:18;13.50;;;8.70;;
46288;SDS011;63105;46.158;14.604;2023-03-23T06:43:43;12.18;;;8.30;;
46288;SDS011;63105;46.158;14.604;2023-03-23T06:46:11;11.80;;;8.73;;
46288;SDS011;63105;46.158;14.604;2023-03-23T06:48:36;11.90;;;8.80;;
46288;SDS011;63105;46.158;14.604;2023-03-23T06:51:01;15.07;;;10.25;;
46288;SDS011;63105;46.158;14.604;2023-03-23T06:53:27;14.98;;;10.18;;
46288;SDS011;63105;46.158;14.604;2023-03-23T06:55:53;14.80;;;10.25;;
46288;SDS011;63105;46.158;14.604;2023-03-23T06:58:18;16.73;;;10.90;;
46288;SDS011;63105;46.158;14.604;2023-03-23T07:00:43;15.95;;;10.63;;
46288;SDS011;63105;46.158;14.604;2023-03-23T07:03:09;15.55;;;11.90;;
46288;SDS011;63105;46.158;14.604;2023-03-23T07:05:34;12.88;;;9.32;;
46288;SDS011;63105;46.158;14.604;2023-03-23T07:08:00;12.82;;;9.25;;
46288;SDS011;63105;46.158;14.604;2023-03-23T07:10:26;11.20;;;8.38;;
46288;SDS011;63105;46.158;14.604;2023-03-23T07:12:52;12.85;;;9.50;;
46288;SDS011;63105;46.158;14.604;2023-03-23T07:15:17;10.63;;;8.10;;
46288;SDS011;63105;46.158;14.604;2023-03-23T07:17:43;11.30;;;8.57;;
46288;SDS011;63105;46.158;14.604;2023-03-23T07:20:08;11.77;;;8.63;;
46288;SDS011;63105;46.158;14.604;2023-03-23T07:22:33;13.07;;;9.13;;
46288;SDS011;63105;46.158;14.604;2023-03-23T07:24:59;11.13;;;8.20;;
46288;SDS011;63105;46.158;14.604;2023-03-23T07:27:24;12.13;;;8.30;;
46288;SDS011;63105;46.158;14.604;2023-03-23T07:29:50;12.73;;;8.88;;
46288;SDS011;63105;46.158;14.604;2023-03-23T07:32:15;11.98;;;8.85;;
46288;SDS011;63105;46.158;14.604;2023-03-23T07:34:40;12.40;;;9.13;;
46288;SDS011;63105;46.158;14.604;2023-03-23T07:37:06;14.93;;;9.55;;
46288;SDS011;63105;46.158;14.604;2023-03-23T07:39:31;13.45;;;9.18;;
46288;SDS011;63105;46.158;14.604;2023-03-23T07:41:58;12.30;;;9.27;;
46288;SDS011;63105;46.158;14.604;2023-03-23T07:44:23;13.27;;;10.40;;
46288;SDS011;63105;46.158;14.604;2023-03-23T07:46:48;13.25;;;10.13;;
46288;SDS011;63105;46.158;14.604;2023-03-23T07:49:13;12.60;;;9.52;;
46288;SDS011;63105;46.158;14.604;2023-03-23T07:51:39;13.60;;;10.07;;
46288;SDS011;63105;46.158;14.604;2023-03-23T07:54:05;16.25;;;10.25;;
46288;SDS011;63105;46.158;14.604;2023-03-23T07:56:32;16.98;;;10.43;;
46288;SDS011;63105;46.158;14.604;2023-03-23T07:58:57;17.17;;;10.65;;
46288;SDS011;63105;46.158;14.604;2023-03-23T08:01:22;17.48;;;10.70;;
46288;SDS011;63105;46.158;14.604;2023-03-23T08:03:49;14.73;;;9.20;;
46288;SDS011;63105;46.158;14.604;2023-03-23T08:06:15;13.80;;;9.77;;
46288;SDS011;63105;46.158;14.604;2023-03-23T08:08:40;10.05;;;7.70;;
46288;SDS011;63105;46.158;14.604;2023-03-23T08:11:06;10.57;;;8.20;;
46288;SDS011;63105;46.158;14.604;2023-03-23T08:13:31;13.50;;;10.02;;
46288;SDS011;63105;46.158;14.604;2023-03-23T08:15:58;12.75;;;9.40;;
46288;SDS011;63105;46.158;14.604;2023-03-23T08:18:23;12.75;;;9.80;;
46288;SDS011;63105;46.158;14.604;2023-03-23T08:20:50;12.00;;;8.82;;
46288;SDS011;63105;46.158;14.604;2023-03-23T08:23:15;12.40;;;9.10;;
46288;SDS011;63105;46.158;14.604;2023-03-23T08:25:41;13.43;;;9.13;;
46288;SDS011;63105;46.158;14.604;2023-03-23T08:28:07;12.20;;;8.25;;
46288;SDS011;63105;46.158;14.604;2023-03-23T08:30:34;9.45;;;7.57;;
46288;SDS011;63105;46.158;14.604;2023-03-23T08:33:01;11.10;;;7.78;;
46288;SDS011;63105;46.158;14.604;2023-03-23T08:35:26;13.50;;;10.18;;
46288;SDS011;63105;46.158;14.604;2023-03-23T08:37:52;13.55;;;9.98;;
46288;SDS011;63105;46.158;14.604;2023-03-23T08:40:18;14.07;;;11.20;;
46288;SDS011;63105;46.158;14.604;2023-03-23T08:42:45;11.75;;;8.85;;
46288;SDS011;63105;46.158;14.604;2023-03-23T08:45:12;12.07;;;9.43;;
46288;SDS011;63105;46.158;14.604;2023-03-23T08:47:37;13.20;;;9.00;;
46288;SDS011;63105;46.158;14.604;2023-03-23T08:50:03;15.05;;;10.60;;
46288;SDS011;63105;46.158;14.604;2023-03-23T08:52:29;14.85;;;10.75;;
46288;SDS011;63105;46.158;14.604;2023-03-23T08:54:54;12.98;;;10.32;;
46288;SDS011;63105;46.158;14.604;2023-03-23T08:57:20;10.93;;;8.68;;
46288;SDS011;63105;46.158;14.604;2023-03-23T08:59:45;11.95;;;7.97;;
46288;SDS011;63105;46.158;14.604;2023-03-23T09:02:11;12.85;;;9.40;;
46288;SDS011;63105;46.158;14.604;2023-03-23T09:04:37;14.05;;;10.45;;
46288;SDS011;63105;46.158;14.604;2023-03-23T09:07:02;12.40;;;10.15;;
46288;SDS011;63105;46.158;14.604;2023-03-23T09:09:28;11.75;;;8.95;;
46288;SDS011;63105;46.158;14.604;2023-03-23T09:11:53;10.30;;;7.90;;
46288;SDS011;63105;46.158;14.604;2023-03-23T09:14:19;11.15;;;8.20;;
46288;SDS011;63105;46.158;14.604;2023-03-23T09:16:44;13.10;;;9.32;;
46288;SDS011;63105;46.158;14.604;2023-03-23T09:19:10;12.85;;;9.43;;
46288;SDS011;63105;46.158;14.604;2023-03-23T09:21:35;12.80;;;9.60;;
46288;SDS011;63105;46.158;14.604;2023-03-23T09:24:01;10.45;;;8.80;;
46288;SDS011;63105;46.158;14.604;2023-03-23T09:26:26;10.45;;;8.02;;
46288;SDS011;63105;46.158;14.604;2023-03-23T09:28:52;12.10;;;9.13;;
46288;SDS011;63105;46.158;14.604;2023-03-23T09:31:18;13.40;;;10.82;;
46288;SDS011;63105;46.158;14.604;2023-03-23T09:33:45;11.25;;;8.85;;
46288;SDS011;63105;46.158;14.604;2023-03-23T09:36:11;10.20;;;7.60;;
46288;SDS011;63105;46.158;14.604;2023-03-23T09:38:39;13.52;;;9.27;;
46288;SDS011;63105;46.158;14.604;2023-03-23T09:42:11;10.45;;;8.23;;
46288;SDS011;63105;46.158;14.604;2023-03-23T09:44:09;9.43;;;7.22;;
46288;SDS011;63105;46.158;14.604;2023-03-23T09:49:13;9.93;;;8.00;;
46288;SDS011;63105;46.158;14.604;2023-03-23T09:51:50;10.57;;;8.32;;
46288;SDS011;63105;46.158;14.604;2023-03-23T09:56:47;14.32;;;10.85;;
46288;SDS011;63105;46.158;14.604;2023-03-23T10:01:48;16.23;;;11.32;;
46288;SDS011;63105;46.158;14.604;2023-03-23T10:07:21;13.40;;;10.38;;
46288;SDS011;63105;46.158;14.604;2023-03-23T10:09:51;13.40;;;9.23;;
46288;SDS011;63105;46.158;14.604;2023-03-23T10:19:42;10.30;;;7.72;;
46288;SDS011;63105;46.158;14.604;2023-03-23T10:22:11;11.05;;;8.57;;
46288;SDS011;63105;46.158;14.604;2023-03-23T10:29:46;10.13;;;8.00;;
46288;SDS011;63105;46.158;14.604;2023-03-23T10:32:13;9.90;;;7.03;;
46288;SDS011;63105;46.158;14.604;2023-03-23T10:37:23;8.27;;;6.60;;
46288;SDS011;63105;46.158;14.604;2023-03-23T10:39:55;7.55;;;5.78;;
46288;SDS011;63105;46.158;14.604;2023-03-23T10:42:26;8.68;;;6.15;;
46288;SDS011;63105;46.158;14.604;2023-03-23T10:44:52;8.00;;;5.28;;
46288;SDS011;63105;46.158;14.604;2023-03-23T10:47:17;8.57;;;6.82;;
46288;SDS011;63105;46.158;14.604;2023-03-23T10:49:56;8.65;;;5.72;;
46288;SDS011;63105;46.158;14.604;2023-03-23T10:52:30;6.93;;;4.65;;
46288;SDS011;63105;46.158;14.604;2023-03-23T10:57:24;6.43;;;4.43;;
46288;SDS011;63105;46.158;14.604;2023-03-23T10:59:50;7.57;;;5.05;;
46288;SDS011;63105;46.158;14.604;2023-03-23T11:02:19;7.32;;;4.65;;
46288;SDS011;63105;46.158;14.604;2023-03-23T11:05:09;6.47;;;5.03;;
46288;SDS011;63105;46.158;14.604;2023-03-23T11:07:32;9.50;;;7.75;;
46288;SDS011;63105;46.158;14.604;2023-03-23T11:10:03;13.73;;;9.40;;
46288;SDS011;63105;46.158;14.604;2023-03-23T11:12:32;10.10;;;7.95;;
46288;SDS011;63105;46.158;14.604;2023-03-23T11:15:03;8.43;;;6.07;;
46288;SDS011;63105;46.158;14.604;2023-03-23T11:17:29;7.28;;;4.80;;
46288;SDS011;63105;46.158;14.604;2023-03-23T11:19:54;8.80;;;6.70;;
46288;SDS011;63105;46.158;14.604;2023-03-23T11:22:31;11.13;;;7.60;;
46288;SDS011;63105;46.158;14.604;2023-03-23T11:24:59;6.60;;;4.90;;
46288;SDS011;63105;46.158;14.604;2023-03-23T11:27:24;6.03;;;4.47;;
46288;SDS011;63105;46.158;14.604;2023-03-23T11:29:53;5.97;;;4.28;;
46288;SDS011;63105;46.158;14.604;2023-03-23T11:32:19;6.30;;;4.50;;
46288;SDS011;63105;46.158;14.604;2023-03-23T11:34:53;6.63;;;4.35;;
46288;SDS011;63105;46.158;14.604;2023-03-23T11:37:28;10.80;;;6.70;;
46288;SDS011;63105;46.158;14.604;2023-03-23T11:39:55;11.85;;;8.07;;
46288;SDS011;63105;46.158;14.604;2023-03-23T11:42:22;13.70;;;8.05;;
46288;SDS011;63105;46.158;14.604;2023-03-23T11:44:48;10.02;;;8.00;;
46288;SDS011;63105;46.158;14.604;2023-03-23T11:47:32;8.48;;;6.95;;
46288;SDS011;63105;46.158;14.604;2023-03-23T11:50:18;7.93;;;6.50;;
46288;SDS011;63105;46.158;14.604;2023-03-23T11:55:19;9.57;;;7.20;;
46288;SDS011;63105;46.158;14.604;2023-03-23T11:57:44;9.63;;;6.97;;
46288;SDS011;63105;46.158;14.604;2023-03-23T12:00:16;10.38;;;7.25;;
46288;SDS011;63105;46.158;14.604;2023-03-23T12:02:48;11.95;;;7.93;;
46288;SDS011;63105;46.158;14.604;2023-03-23T12:10:45;9.05;;;4.60;;
46288;SDS011;63105;46.158;14.604;2023-03-23T12:18:40;6.13;;;3.88;;
46288;SDS011;63105;46.158;14.604;2023-03-23T12:21:19;7.38;;;4.35;;
46288;SDS011;63105;46.158;14.604;2023-03-23T12:26:31;9.07;;;5.15;;
46288;SDS011;63105;46.158;14.604;2023-03-23T12:44:45;6.22;;;4.07;;
46288;SDS011;63105;46.158;14.604;2023-03-23T12:52:25;10.27;;;5.07;;
46288;SDS011;63105;46.158;14.604;2023-03-23T12:57:25;5.70;;;3.75;;
46288;SDS011;63105;46.158;14.604;2023-03-23T13:03:02;5.70;;;3.60;;
46288;SDS011;63105;46.158;14.604;2023-03-23T13:08:11;5.35;;;3.60;;
46288;SDS011;63105;46.158;14.604;2023-03-23T13:10:42;4.65;;;2.90;;
46288;SDS011;63105;46.158;14.604;2023-03-23T13:13:19;4.78;;;2.90;;
46288;SDS011;63105;46.158;14.604;2023-03-23T13:20:52;4.82;;;2.92;;
46288;SDS011;63105;46.158;14.604;2023-03-23T13:23:21;4.72;;;3.00;;
46288;SDS011;63105;46.158;14.604;2023-03-23T13:25:59;4.75;;;2.33;;
46288;SDS011;63105;46.158;14.604;2023-03-23T13:28:26;4.30;;;2.55;;
46288;SDS011;63105;46.158;14.604;2023-03-23T13:33:57;4.35;;;2.67;;
46288;SDS011;63105;46.158;14.604;2023-03-23T13:36:29;4.60;;;2.30;;
46288;SDS011;63105;46.158;14.604;2023-03-23T13:38:54;3.90;;;2.25;;
46288;SDS011;63105;46.158;14.604;2023-03-23T13:41:22;4.93;;;2.50;;
46288;SDS011;63105;46.158;14.604;2023-03-23T13:43:48;5.53;;;2.35;;
46288;SDS011;63105;46.158;14.604;2023-03-23T13:48:48;5.07;;;2.65;;
46288;SDS011;63105;46.158;14.604;2023-03-23T13:53:48;3.53;;;1.80;;
46288;SDS011;63105;46.158;14.604;2023-03-23T13:56:16;4.18;;;2.30;;
46288;SDS011;63105;46.158;14.604;2023-03-23T13:58:46;3.67;;;2.15;;
46288;SDS011;63105;46.158;14.604;2023-03-23T14:01:13;4.38;;;2.10;;
46288;SDS011;63105;46.158;14.604;2023-03-23T14:03:41;3.65;;;1.88;;
46288;SDS011;63105;46.158;14.604;2023-03-23T14:06:14;4.40;;;2.00;;
46288;SDS011;63105;46.158;14.604;2023-03-23T14:08:43;3.63;;;1.83;;
46288;SDS011;63105;46.158;14.604;2023-03-23T14:11:16;4.10;;;2.00;;
46288;SDS011;63105;46.158;14.604;2023-03-23T14:16:18;3.70;;;2.10;;
46288;SDS011;63105;46.158;14.604;2023-03-23T14:18:54;3.90;;;2.20;;
46288;SDS011;63105;46.158;14.604;2023-03-23T14:21:36;3.90;;;2.13;;
46288;SDS011;63105;46.158;14.604;2023-03-23T14:24:05;3.70;;;2.00;;
46288;SDS011;63105;46.158;14.604;2023-03-23T14:26:33;3.85;;;2.20;;
46288;SDS011;63105;46.158;14.604;2023-03-23T14:28:59;5.00;;;2.58;;
46288;SDS011;63105;46.158;14.604;2023-03-23T14:31:25;3.97;;;2.27;;
46288;SDS011;63105;46.158;14.604;2023-03-23T14:33:51;4.70;;;2.15;;
46288;SDS011;63105;46.158;14.604;2023-03-23T14:36:21;4.57;;;2.30;;
46288;SDS011;63105;46.158;14.604;2023-03-23T14:38:47;6.43;;;2.40;;
46288;SDS011;63105;46.158;14.604;2023-03-23T14:41:12;5.20;;;2.28;;
46288;SDS011;63105;46.158;14.604;2023-03-23T14:43:38;4.38;;;2.30;;
46288;SDS011;63105;46.158;14.604;2023-03-23T14:46:05;4.25;;;2.22;;
46288;SDS011;63105;46.158;14.604;2023-03-23T14:48:31;4.68;;;2.03;;
46288;SDS011;63105;46.158;14.604;2023-03-23T14:51:01;4.30;;;2.10;;
46288;SDS011;63105;46.158;14.604;2023-03-23T14:56:02;3.78;;;1.80;;
46288;SDS011;63105;46.158;14.604;2023-03-23T14:58:29;4.97;;;2.17;;
46288;SDS011;63105;46.158;14.604;2023-03-23T15:00:59;4.90;;;2.08;;
46288;SDS011;63105;46.158;14.604;2023-03-23T15:03:26;3.60;;;2.10;;
46288;SDS011;63105;46.158;14.604;2023-03-23T15:05:54;4.20;;;2.20;;
46288;SDS011;63105;46.158;14.604;2023-03-23T15:08:27;5.13;;;2.20;;
46288;SDS011;63105;46.158;14.604;2023-03-23T15:10:59;3.47;;;1.70;;
46288;SDS011;63105;46.158;14.604;2023-03-23T15:13:27;4.57;;;2.22;;
46288;SDS011;63105;46.158;14.604;2023-03-23T15:16:00;4.13;;;2.10;;
46288;SDS011;63105;46.158;14.604;2023-03-23T15:18:29;4.10;;;2.20;;
46288;SDS011;63105;46.158;14.604;2023-03-23T15:20:55;4.07;;;2.30;;
46288;SDS011;63105;46.158;14.604;2023-03-23T15:23:27;3.58;;;2.10;;
46288;SDS011;63105;46.158;14.604;2023-03-23T15:25:53;4.28;;;2.25;;
46288;SDS011;63105;46.158;14.604;2023-03-23T15:28:20;4.15;;;2.30;;
46288;SDS011;63105;46.158;14.604;2023-03-23T15:30:50;4.25;;;2.17;;
46288;SDS011;63105;46.158;14.604;2023-03-23T15:33:16;3.72;;;1.95;;
46288;SDS011;63105;46.158;14.604;2023-03-23T15:35:46;3.55;;;1.90;;
46288;SDS011;63105;46.158;14.604;2023-03-23T15:38:20;4.20;;;2.45;;
46288;SDS011;63105;46.158;14.604;2023-03-23T15:40:48;4.70;;;2.50;;
46288;SDS011;63105;46.158;14.604;2023-03-23T15:43:15;4.38;;;2.38;;
46288;SDS011;63105;46.158;14.604;2023-03-23T15:45:51;5.75;;;3.22;;
46288;SDS011;63105;46.158;14.604;2023-03-23T15:48:16;6.10;;;3.80;;
46288;SDS011;63105;46.158;14.604;2023-03-23T15:50:41;6.70;;;3.90;;
46288;SDS011;63105;46.158;14.604;2023-03-23T15:55:50;5.45;;;3.38;;
46288;SDS011;63105;46.158;14.604;2023-03-23T15:58:16;4.60;;;2.90;;
46288;SDS011;63105;46.158;14.604;2023-03-23T16:00:41;4.63;;;2.90;;
46288;SDS011;63105;46.158;14.604;2023-03-23T16:03:10;5.88;;;2.75;;
46288;SDS011;63105;46.158;14.604;2023-03-23T16:05:35;4.93;;;2.30;;
46288;SDS011;63105;46.158;14.604;2023-03-23T16:08:00;4.10;;;2.67;;
46288;SDS011;63105;46.158;14.604;2023-03-23T16:10:26;4.55;;;2.17;;
46288;SDS011;63105;46.158;14.604;2023-03-23T16:12:52;4.07;;;1.98;;
46288;SDS011;63105;46.158;14.604;2023-03-23T16:15:17;3.92;;;1.92;;
46288;SDS011;63105;46.158;14.604;2023-03-23T16:17:42;4.03;;;2.22;;
46288;SDS011;63105;46.158;14.604;2023-03-23T16:20:27;4.05;;;2.05;;
46288;SDS011;63105;46.158;14.604;2023-03-23T16:22:52;3.65;;;1.92;;
46288;SDS011;63105;46.158;14.604;2023-03-23T16:25:17;3.80;;;2.33;;